sensor_id;sensor_type;location;lat;lon;timestamp;P1;durP1;ratioP1;P2;durP2;ratioP2
21091;SDS011;10704;42.678;23.288;2023-02-13T00:01:53;78.95;;;36.67;;
21091;SDS011;10704;42.678;23.288;2023-02-13T00:04:35;78.88;;;37.95;;
21091;SDS011;10704;42.678;23.288;2023-02-13T00:07:01;76.45;;;36.72;;
21091;SDS011;10704;42.678;23.288;2023-02-13T00:09:27;78.03;;;35.97;;
21091;SDS011;10704;42.678;23.288;2023-02-13T00:15:03;86.10;;;39.08;;
21091;SDS011;10704;42.678;23.288;2023-02-13T00:17:29;83.38;;;39.35;;
21091;SDS011;10704;42.678;23.288;2023-02-13T00:19:55;79.10;;;38.08;;
21091;SDS011;10704;42.678;23.288;2023-02-13T00:22:20;75.05;;;36.55;;
21091;SDS011;10704;42.678;23.288;2023-02-13T00:28:34;78.82;;;33.85;;
21091;SDS011;10704;42.678;23.288;2023-02-13T00:31:06;81.00;;;36.05;;
21091;SDS011;10704;42.678;23.288;2023-02-13T00:33:34;77.63;;;34.80;;
21091;SDS011;10704;42.678;23.288;2023-02-13T00:36:10;70.15;;;33.80;;
21091;SDS011;10704;42.678;23.288;2023-02-13T00:38:41;74.18;;;33.70;;
21091;SDS011;10704;42.678;23.288;2023-02-13T00:41:08;68.45;;;33.40;;
21091;SDS011;10704;42.678;23.288;2023-02-13T00:43:35;69.55;;;33.05;;
21091;SDS011;10704;42.678;23.288;2023-02-13T00:46:01;71.00;;;33.70;;
21091;SDS011;10704;42.678;23.288;2023-02-13T00:48:28;70.72;;;33.47;;
21091;SDS011;10704;42.678;23.288;2023-02-13T00:50:55;75.35;;;35.25;;
21091;SDS011;10704;42.678;23.288;2023-02-13T00:53:22;69.57;;;33.78;;
21091;SDS011;10704;42.678;23.288;2023-02-13T01:03:24;77.95;;;35.00;;
21091;SDS011;10704;42.678;23.288;2023-02-13T01:05:51;75.50;;;35.88;;
21091;SDS011;10704;42.678;23.288;2023-02-13T01:08:18;67.68;;;32.17;;
21091;SDS011;10704;42.678;23.288;2023-02-13T01:10:54;77.97;;;35.03;;
21091;SDS011;10704;42.678;23.288;2023-02-13T01:13:21;74.53;;;34.78;;
21091;SDS011;10704;42.678;23.288;2023-02-13T01:16:04;86.53;;;36.92;;
21091;SDS011;10704;42.678;23.288;2023-02-13T01:18:30;73.35;;;34.35;;
21091;SDS011;10704;42.678;23.288;2023-02-13T01:20:58;81.18;;;37.20;;
21091;SDS011;10704;42.678;23.288;2023-02-13T01:23:28;75.88;;;33.92;;
21091;SDS011;10704;42.678;23.288;2023-02-13T01:25:55;83.40;;;37.22;;
21091;SDS011;10704;42.678;23.288;2023-02-13T01:32:13;79.88;;;36.85;;
21091;SDS011;10704;42.678;23.288;2023-02-13T01:38:26;76.07;;;36.90;;
21091;SDS011;10704;42.678;23.288;2023-02-13T01:40:52;80.15;;;36.42;;
21091;SDS011;10704;42.678;23.288;2023-02-13T01:43:19;76.55;;;36.05;;
21091;SDS011;10704;42.678;23.288;2023-02-13T01:45:47;78.57;;;35.90;;
21091;SDS011;10704;42.678;23.288;2023-02-13T01:48:22;78.93;;;36.60;;
21091;SDS011;10704;42.678;23.288;2023-02-13T01:50:52;83.85;;;38.78;;
21091;SDS011;10704;42.678;23.288;2023-02-13T01:53:24;80.72;;;36.22;;
21091;SDS011;10704;42.678;23.288;2023-02-13T01:55:56;80.78;;;37.00;;
21091;SDS011;10704;42.678;23.288;2023-02-13T01:58:31;84.78;;;37.92;;
21091;SDS011;10704;42.678;23.288;2023-02-13T02:00:59;78.30;;;38.25;;
21091;SDS011;10704;42.678;23.288;2023-02-13T02:06:03;85.05;;;37.47;;
21091;SDS011;10704;42.678;23.288;2023-02-13T02:08:31;87.57;;;37.72;;
21091;SDS011;10704;42.678;23.288;2023-02-13T02:11:00;75.18;;;35.80;;
21091;SDS011;10704;42.678;23.288;2023-02-13T02:13:35;87.22;;;38.60;;
21091;SDS011;10704;42.678;23.288;2023-02-13T02:16:06;86.38;;;37.83;;
21091;SDS011;10704;42.678;23.288;2023-02-13T02:18:41;82.35;;;37.47;;
21091;SDS011;10704;42.678;23.288;2023-02-13T02:33:35;83.80;;;37.78;;
21091;SDS011;10704;42.678;23.288;2023-02-13T02:36:12;80.78;;;37.40;;
21091;SDS011;10704;42.678;23.288;2023-02-13T02:53:39;91.20;;;38.83;;
21091;SDS011;10704;42.678;23.288;2023-02-13T02:56:30;73.25;;;36.10;;
21091;SDS011;10704;42.678;23.288;2023-02-13T02:59:12;80.63;;;37.80;;
21091;SDS011;10704;42.678;23.288;2023-02-13T03:02:00;80.55;;;36.65;;
21091;SDS011;10704;42.678;23.288;2023-02-13T03:11:53;75.57;;;34.28;;
21091;SDS011;10704;42.678;23.288;2023-02-13T03:29:05;77.80;;;35.97;;
21091;SDS011;10704;42.678;23.288;2023-02-13T03:32:03;83.32;;;35.50;;
21091;SDS011;10704;42.678;23.288;2023-02-13T03:34:40;80.63;;;36.00;;
21091;SDS011;10704;42.678;23.288;2023-02-13T03:37:37;81.10;;;35.35;;
21091;SDS011;10704;42.678;23.288;2023-02-13T03:42:52;78.70;;;34.90;;
21091;SDS011;10704;42.678;23.288;2023-02-13T03:45:37;73.22;;;33.67;;
21091;SDS011;10704;42.678;23.288;2023-02-13T03:48:35;71.82;;;33.58;;
21091;SDS011;10704;42.678;23.288;2023-02-13T03:51:31;80.95;;;36.70;;
21091;SDS011;10704;42.678;23.288;2023-02-13T03:54:18;79.65;;;34.75;;
21091;SDS011;10704;42.678;23.288;2023-02-13T03:57:06;77.68;;;37.42;;
21091;SDS011;10704;42.678;23.288;2023-02-13T04:13:13;79.82;;;33.92;;
21091;SDS011;10704;42.678;23.288;2023-02-13T04:15:46;72.63;;;34.45;;
21091;SDS011;10704;42.678;23.288;2023-02-13T04:18:19;83.28;;;35.75;;
21091;SDS011;10704;42.678;23.288;2023-02-13T04:20:47;77.13;;;35.42;;
21091;SDS011;10704;42.678;23.288;2023-02-13T04:23:13;76.05;;;34.45;;
21091;SDS011;10704;42.678;23.288;2023-02-13T04:25:41;79.32;;;34.55;;
21091;SDS011;10704;42.678;23.288;2023-02-13T04:28:10;81.70;;;34.75;;
21091;SDS011;10704;42.678;23.288;2023-02-13T04:30:35;76.55;;;36.22;;
21091;SDS011;10704;42.678;23.288;2023-02-13T04:33:02;75.95;;;34.58;;
21091;SDS011;10704;42.678;23.288;2023-02-13T04:35:28;76.05;;;34.05;;
21091;SDS011;10704;42.678;23.288;2023-02-13T04:37:54;77.40;;;34.58;;
21091;SDS011;10704;42.678;23.288;2023-02-13T04:40:20;73.97;;;34.08;;
21091;SDS011;10704;42.678;23.288;2023-02-13T04:42:46;79.53;;;35.47;;
21091;SDS011;10704;42.678;23.288;2023-02-13T04:45:13;71.50;;;34.78;;
21091;SDS011;10704;42.678;23.288;2023-02-13T04:47:39;79.55;;;35.67;;
21091;SDS011;10704;42.678;23.288;2023-02-13T04:50:05;71.88;;;33.58;;
21091;SDS011;10704;42.678;23.288;2023-02-13T04:52:32;78.35;;;33.95;;
21091;SDS011;10704;42.678;23.288;2023-02-13T04:54:57;81.75;;;36.63;;
21091;SDS011;10704;42.678;23.288;2023-02-13T04:57:23;79.57;;;37.13;;
21091;SDS011;10704;42.678;23.288;2023-02-13T04:59:49;84.80;;;40.22;;
21091;SDS011;10704;42.678;23.288;2023-02-13T05:02:15;89.78;;;43.45;;
21091;SDS011;10704;42.678;23.288;2023-02-13T05:04:41;98.15;;;45.60;;
21091;SDS011;10704;42.678;23.288;2023-02-13T05:07:07;95.95;;;43.90;;
21091;SDS011;10704;42.678;23.288;2023-02-13T05:09:33;95.47;;;45.08;;
21091;SDS011;10704;42.678;23.288;2023-02-13T05:11:59;104.90;;;49.78;;
21091;SDS011;10704;42.678;23.288;2023-02-13T05:14:24;106.82;;;48.95;;
21091;SDS011;10704;42.678;23.288;2023-02-13T05:16:50;96.82;;;44.83;;
21091;SDS011;10704;42.678;23.288;2023-02-13T05:19:16;96.28;;;43.40;;
21091;SDS011;10704;42.678;23.288;2023-02-13T05:25:04;93.35;;;42.05;;
21091;SDS011;10704;42.678;23.288;2023-02-13T05:27:42;86.65;;;40.05;;
21091;SDS011;10704;42.678;23.288;2023-02-13T05:40:46;74.57;;;34.67;;
21091;SDS011;10704;42.678;23.288;2023-02-13T05:43:11;85.00;;;39.78;;
21091;SDS011;10704;42.678;23.288;2023-02-13T05:45:37;87.40;;;40.45;;
21091;SDS011;10704;42.678;23.288;2023-02-13T05:48:03;85.15;;;37.75;;
21091;SDS011;10704;42.678;23.288;2023-02-13T05:50:29;76.05;;;38.05;;
21091;SDS011;10704;42.678;23.288;2023-02-13T05:52:55;82.13;;;37.50;;
21091;SDS011;10704;42.678;23.288;2023-02-13T05:55:21;80.85;;;37.72;;
21091;SDS011;10704;42.678;23.288;2023-02-13T05:57:47;84.53;;;37.38;;
21091;SDS011;10704;42.678;23.288;2023-02-13T06:00:13;79.65;;;37.35;;
21091;SDS011;10704;42.678;23.288;2023-02-13T06:02:39;78.15;;;36.67;;
21091;SDS011;10704;42.678;23.288;2023-02-13T06:05:06;74.65;;;37.58;;
21091;SDS011;10704;42.678;23.288;2023-02-13T06:07:32;80.40;;;38.47;;
21091;SDS011;10704;42.678;23.288;2023-02-13T06:09:57;83.68;;;39.65;;
21091;SDS011;10704;42.678;23.288;2023-02-13T06:12:23;82.07;;;37.58;;
21091;SDS011;10704;42.678;23.288;2023-02-13T06:14:50;83.85;;;39.00;;
21091;SDS011;10704;42.678;23.288;2023-02-13T06:17:15;76.88;;;37.78;;
21091;SDS011;10704;42.678;23.288;2023-02-13T06:19:41;85.07;;;38.15;;
21091;SDS011;10704;42.678;23.288;2023-02-13T06:22:07;81.85;;;37.15;;
21091;SDS011;10704;42.678;23.288;2023-02-13T06:24:33;81.40;;;38.88;;
21091;SDS011;10704;42.678;23.288;2023-02-13T06:26:59;81.47;;;38.65;;
21091;SDS011;10704;42.678;23.288;2023-02-13T06:29:25;80.80;;;37.10;;
21091;SDS011;10704;42.678;23.288;2023-02-13T06:31:50;82.85;;;41.20;;
21091;SDS011;10704;42.678;23.288;2023-02-13T06:41:26;82.75;;;38.85;;
21091;SDS011;10704;42.678;23.288;2023-02-13T06:43:51;96.53;;;40.72;;
21091;SDS011;10704;42.678;23.288;2023-02-13T06:46:17;91.30;;;41.92;;
21091;SDS011;10704;42.678;23.288;2023-02-13T06:48:43;86.95;;;39.83;;
21091;SDS011;10704;42.678;23.288;2023-02-13T06:51:09;86.53;;;42.63;;
21091;SDS011;10704;42.678;23.288;2023-02-13T06:53:35;86.78;;;44.00;;
21091;SDS011;10704;42.678;23.288;2023-02-13T06:56:02;92.93;;;46.03;;
21091;SDS011;10704;42.678;23.288;2023-02-13T06:58:30;89.60;;;45.17;;
21091;SDS011;10704;42.678;23.288;2023-02-13T07:00:56;101.40;;;49.45;;
21091;SDS011;10704;42.678;23.288;2023-02-13T07:03:22;90.88;;;45.38;;
21091;SDS011;10704;42.678;23.288;2023-02-13T07:05:48;94.88;;;45.65;;
21091;SDS011;10704;42.678;23.288;2023-02-13T07:08:16;91.50;;;45.63;;
21091;SDS011;10704;42.678;23.288;2023-02-13T07:10:43;93.15;;;45.47;;
21091;SDS011;10704;42.678;23.288;2023-02-13T07:13:09;86.03;;;43.35;;
21091;SDS011;10704;42.678;23.288;2023-02-13T07:15:35;88.10;;;41.42;;
21091;SDS011;10704;42.678;23.288;2023-02-13T07:18:02;84.65;;;40.08;;
21091;SDS011;10704;42.678;23.288;2023-02-13T07:20:29;71.60;;;35.10;;
21091;SDS011;10704;42.678;23.288;2023-02-13T07:22:59;76.63;;;36.10;;
21091;SDS011;10704;42.678;23.288;2023-02-13T07:25:25;82.07;;;40.60;;
21091;SDS011;10704;42.678;23.288;2023-02-13T07:27:52;105.53;;;49.00;;
21091;SDS011;10704;42.678;23.288;2023-02-13T07:30:18;93.45;;;48.55;;
21091;SDS011;10704;42.678;23.288;2023-02-13T07:32:43;95.45;;;47.17;;
21091;SDS011;10704;42.678;23.288;2023-02-13T07:35:09;85.63;;;41.88;;
21091;SDS011;10704;42.678;23.288;2023-02-13T07:37:35;87.63;;;43.58;;
21091;SDS011;10704;42.678;23.288;2023-02-13T07:40:01;83.45;;;39.97;;
21091;SDS011;10704;42.678;23.288;2023-02-13T07:42:31;81.10;;;40.33;;
21091;SDS011;10704;42.678;23.288;2023-02-13T07:44:57;76.93;;;35.85;;
21091;SDS011;10704;42.678;23.288;2023-02-13T07:47:23;72.93;;;36.00;;
21091;SDS011;10704;42.678;23.288;2023-02-13T07:49:49;73.88;;;33.85;;
21091;SDS011;10704;42.678;23.288;2023-02-13T07:52:15;75.38;;;36.13;;
21091;SDS011;10704;42.678;23.288;2023-02-13T07:54:41;70.22;;;34.83;;
21091;SDS011;10704;42.678;23.288;2023-02-13T07:57:12;73.68;;;34.83;;
21091;SDS011;10704;42.678;23.288;2023-02-13T07:59:41;67.03;;;32.35;;
21091;SDS011;10704;42.678;23.288;2023-02-13T08:02:11;71.10;;;34.72;;
21091;SDS011;10704;42.678;23.288;2023-02-13T08:04:38;62.97;;;31.63;;
21091;SDS011;10704;42.678;23.288;2023-02-13T08:07:04;72.97;;;33.20;;
21091;SDS011;10704;42.678;23.288;2023-02-13T08:09:30;65.82;;;31.90;;
21091;SDS011;10704;42.678;23.288;2023-02-13T08:12:14;68.95;;;30.92;;
21091;SDS011;10704;42.678;23.288;2023-02-13T08:14:40;61.95;;;30.50;;
21091;SDS011;10704;42.678;23.288;2023-02-13T08:17:08;70.43;;;33.97;;
21091;SDS011;10704;42.678;23.288;2023-02-13T08:19:34;71.03;;;31.30;;
21091;SDS011;10704;42.678;23.288;2023-02-13T08:22:00;64.78;;;32.90;;
21091;SDS011;10704;42.678;23.288;2023-02-13T08:24:26;68.15;;;31.05;;
21091;SDS011;10704;42.678;23.288;2023-02-13T08:26:51;64.63;;;31.45;;
21091;SDS011;10704;42.678;23.288;2023-02-13T08:29:17;67.78;;;32.08;;
21091;SDS011;10704;42.678;23.288;2023-02-13T08:31:43;68.70;;;32.70;;
21091;SDS011;10704;42.678;23.288;2023-02-13T08:34:09;61.75;;;30.80;;
21091;SDS011;10704;42.678;23.288;2023-02-13T08:36:35;73.28;;;33.78;;
21091;SDS011;10704;42.678;23.288;2023-02-13T08:39:01;68.93;;;33.15;;
21091;SDS011;10704;42.678;23.288;2023-02-13T08:48:04;68.72;;;33.03;;
21091;SDS011;10704;42.678;23.288;2023-02-13T08:50:30;72.75;;;33.60;;
21091;SDS011;10704;42.678;23.288;2023-02-13T08:52:56;65.10;;;31.13;;
21091;SDS011;10704;42.678;23.288;2023-02-13T08:55:22;71.35;;;32.50;;
21091;SDS011;10704;42.678;23.288;2023-02-13T08:57:48;68.68;;;33.05;;
21091;SDS011;10704;42.678;23.288;2023-02-13T09:00:14;62.95;;;29.17;;
21091;SDS011;10704;42.678;23.288;2023-02-13T09:02:40;67.43;;;31.65;;
21091;SDS011;10704;42.678;23.288;2023-02-13T09:05:06;66.97;;;33.03;;
21091;SDS011;10704;42.678;23.288;2023-02-13T09:07:32;72.82;;;33.67;;
21091;SDS011;10704;42.678;23.288;2023-02-13T09:13:45;73.38;;;38.05;;
21091;SDS011;10704;42.678;23.288;2023-02-13T09:16:12;74.68;;;36.35;;
21091;SDS011;10704;42.678;23.288;2023-02-13T09:18:38;68.80;;;33.40;;
21091;SDS011;10704;42.678;23.288;2023-02-13T09:21:08;74.60;;;35.38;;
21091;SDS011;10704;42.678;23.288;2023-02-13T09:23:36;75.10;;;35.85;;
21091;SDS011;10704;42.678;23.288;2023-02-13T09:26:05;70.53;;;32.35;;
21091;SDS011;10704;42.678;23.288;2023-02-13T09:28:33;70.70;;;33.60;;
21091;SDS011;10704;42.678;23.288;2023-02-13T09:33:39;67.25;;;31.85;;
21091;SDS011;10704;42.678;23.288;2023-02-13T09:36:06;73.32;;;33.67;;
21091;SDS011;10704;42.678;23.288;2023-02-13T09:38:35;74.75;;;34.97;;
21091;SDS011;10704;42.678;23.288;2023-02-13T09:41:04;76.15;;;34.72;;
21091;SDS011;10704;42.678;23.288;2023-02-13T09:43:35;67.47;;;34.13;;
21091;SDS011;10704;42.678;23.288;2023-02-13T09:46:22;72.97;;;36.22;;
21091;SDS011;10704;42.678;23.288;2023-02-13T09:48:52;75.22;;;34.45;;
21091;SDS011;10704;42.678;23.288;2023-02-13T09:51:21;71.70;;;35.05;;
21091;SDS011;10704;42.678;23.288;2023-02-13T10:11:30;60.38;;;29.80;;
21091;SDS011;10704;42.678;23.288;2023-02-13T10:14:18;59.90;;;29.35;;
21091;SDS011;10704;42.678;23.288;2023-02-13T10:16:50;57.40;;;29.90;;
21091;SDS011;10704;42.678;23.288;2023-02-13T10:22:37;57.47;;;29.17;;
21091;SDS011;10704;42.678;23.288;2023-02-13T10:25:13;49.38;;;27.52;;
21091;SDS011;10704;42.678;23.288;2023-02-13T10:27:45;56.88;;;28.52;;
21091;SDS011;10704;42.678;23.288;2023-02-13T10:30:17;54.28;;;29.30;;
21091;SDS011;10704;42.678;23.288;2023-02-13T10:39:08;57.00;;;28.42;;
21091;SDS011;10704;42.678;23.288;2023-02-13T10:45:56;50.92;;;29.27;;
21091;SDS011;10704;42.678;23.288;2023-02-13T10:51:24;55.88;;;29.35;;
21091;SDS011;10704;42.678;23.288;2023-02-13T10:59:37;46.92;;;26.05;;
21091;SDS011;10704;42.678;23.288;2023-02-13T11:04:41;47.75;;;26.63;;
21091;SDS011;10704;42.678;23.288;2023-02-13T11:07:10;46.95;;;26.88;;
21091;SDS011;10704;42.678;23.288;2023-02-13T11:19:57;41.25;;;24.00;;
21091;SDS011;10704;42.678;23.288;2023-02-13T11:24:57;39.10;;;22.73;;
21091;SDS011;10704;42.678;23.288;2023-02-13T11:27:27;41.60;;;24.40;;
21091;SDS011;10704;42.678;23.288;2023-02-13T11:37:31;36.55;;;19.55;;
21091;SDS011;10704;42.678;23.288;2023-02-13T11:39:58;37.70;;;20.55;;
21091;SDS011;10704;42.678;23.288;2023-02-13T11:42:36;37.53;;;21.65;;
21091;SDS011;10704;42.678;23.288;2023-02-13T11:45:06;38.47;;;21.05;;
21091;SDS011;10704;42.678;23.288;2023-02-13T11:47:45;38.92;;;21.25;;
21091;SDS011;10704;42.678;23.288;2023-02-13T11:53:47;37.42;;;21.77;;
21091;SDS011;10704;42.678;23.288;2023-02-13T11:55:42;37.53;;;21.92;;
21091;SDS011;10704;42.678;23.288;2023-02-13T12:00:40;30.33;;;18.05;;
21091;SDS011;10704;42.678;23.288;2023-02-13T12:06:09;33.55;;;18.65;;
21091;SDS011;10704;42.678;23.288;2023-02-13T12:08:38;31.88;;;17.98;;
21091;SDS011;10704;42.678;23.288;2023-02-13T12:14:18;32.83;;;18.55;;
21091;SDS011;10704;42.678;23.288;2023-02-13T12:16:48;34.25;;;18.33;;
21091;SDS011;10704;42.678;23.288;2023-02-13T12:19:36;35.95;;;18.27;;
21091;SDS011;10704;42.678;23.288;2023-02-13T12:22:11;32.67;;;18.77;;
21091;SDS011;10704;42.678;23.288;2023-02-13T12:45:34;29.38;;;16.17;;
21091;SDS011;10704;42.678;23.288;2023-02-13T12:53:34;23.98;;;14.77;;
21091;SDS011;10704;42.678;23.288;2023-02-13T13:19:34;26.50;;;15.48;;
21091;SDS011;10704;42.678;23.288;2023-02-13T13:22:22;24.77;;;15.35;;
21091;SDS011;10704;42.678;23.288;2023-02-13T13:28:47;27.90;;;15.77;;
21091;SDS011;10704;42.678;23.288;2023-02-13T13:34:09;26.23;;;13.70;;
21091;SDS011;10704;42.678;23.288;2023-02-13T13:36:46;24.65;;;13.93;;
21091;SDS011;10704;42.678;23.288;2023-02-13T13:42:26;23.50;;;14.18;;
21091;SDS011;10704;42.678;23.288;2023-02-13T13:47:56;29.70;;;15.52;;
21091;SDS011;10704;42.678;23.288;2023-02-13T13:50:42;27.45;;;15.38;;
21091;SDS011;10704;42.678;23.288;2023-02-13T13:53:13;24.60;;;14.50;;
21091;SDS011;10704;42.678;23.288;2023-02-13T14:03:39;29.60;;;16.65;;
21091;SDS011;10704;42.678;23.288;2023-02-13T14:06:18;22.20;;;14.00;;
21091;SDS011;10704;42.678;23.288;2023-02-13T14:12:43;26.60;;;14.55;;
21091;SDS011;10704;42.678;23.288;2023-02-13T14:15:01;26.90;;;14.35;;
21091;SDS011;10704;42.678;23.288;2023-02-13T14:21:09;26.25;;;15.15;;
21091;SDS011;10704;42.678;23.288;2023-02-13T14:29:00;27.13;;;14.88;;
21091;SDS011;10704;42.678;23.288;2023-02-13T14:34:33;29.50;;;16.15;;
21091;SDS011;10704;42.678;23.288;2023-02-13T14:40:41;27.17;;;15.40;;
21091;SDS011;10704;42.678;23.288;2023-02-13T14:50:45;29.77;;;17.15;;
21091;SDS011;10704;42.678;23.288;2023-02-13T14:53:17;29.13;;;16.85;;
21091;SDS011;10704;42.678;23.288;2023-02-13T14:55:52;31.83;;;15.93;;
21091;SDS011;10704;42.678;23.288;2023-02-13T14:58:29;29.13;;;16.00;;
21091;SDS011;10704;42.678;23.288;2023-02-13T15:03:48;29.10;;;16.30;;
21091;SDS011;10704;42.678;23.288;2023-02-13T15:06:24;26.83;;;14.88;;
21091;SDS011;10704;42.678;23.288;2023-02-13T15:08:53;30.08;;;16.10;;
21091;SDS011;10704;42.678;23.288;2023-02-13T15:14:16;28.85;;;16.02;;
21091;SDS011;10704;42.678;23.288;2023-02-13T15:16:45;31.13;;;16.52;;
21091;SDS011;10704;42.678;23.288;2023-02-13T15:19:19;32.65;;;17.42;;
21091;SDS011;10704;42.678;23.288;2023-02-13T15:21:47;32.03;;;16.40;;
21091;SDS011;10704;42.678;23.288;2023-02-13T15:24:16;35.03;;;17.85;;
21091;SDS011;10704;42.678;23.288;2023-02-13T15:27:05;34.40;;;18.38;;
21091;SDS011;10704;42.678;23.288;2023-02-13T15:29:32;36.83;;;19.20;;
21091;SDS011;10704;42.678;23.288;2023-02-13T15:31:58;37.58;;;18.38;;
21091;SDS011;10704;42.678;23.288;2023-02-13T15:34:28;39.85;;;19.42;;
21091;SDS011;10704;42.678;23.288;2023-02-13T15:36:58;41.28;;;21.08;;
21091;SDS011;10704;42.678;23.288;2023-02-13T15:39:26;41.63;;;22.70;;
21091;SDS011;10704;42.678;23.288;2023-02-13T15:41:55;40.63;;;23.52;;
21091;SDS011;10704;42.678;23.288;2023-02-13T15:46:59;43.88;;;24.63;;
21091;SDS011;10704;42.678;23.288;2023-02-13T15:52:53;47.15;;;25.85;;
21091;SDS011;10704;42.678;23.288;2023-02-13T15:55:23;50.92;;;29.50;;
21091;SDS011;10704;42.678;23.288;2023-02-13T15:57:54;62.05;;;31.67;;
21091;SDS011;10704;42.678;23.288;2023-02-13T16:00:27;55.38;;;30.83;;
21091;SDS011;10704;42.678;23.288;2023-02-13T16:02:54;54.53;;;29.10;;
21091;SDS011;10704;42.678;23.288;2023-02-13T16:05:21;45.38;;;24.52;;
21091;SDS011;10704;42.678;23.288;2023-02-13T16:08:19;44.47;;;21.48;;
21091;SDS011;10704;42.678;23.288;2023-02-13T16:22:46;46.80;;;23.08;;
21091;SDS011;10704;42.678;23.288;2023-02-13T16:30:22;30.30;;;17.63;;
21091;SDS011;10704;42.678;23.288;2023-02-13T16:35:45;29.90;;;16.30;;
21091;SDS011;10704;42.678;23.288;2023-02-13T16:38:32;35.53;;;16.92;;
21091;SDS011;10704;42.678;23.288;2023-02-13T16:44:27;37.50;;;18.83;;
21091;SDS011;10704;42.678;23.288;2023-02-13T16:50:43;40.70;;;22.10;;
21091;SDS011;10704;42.678;23.288;2023-02-13T16:53:09;40.63;;;20.65;;
21091;SDS011;10704;42.678;23.288;2023-02-13T16:55:35;40.15;;;20.20;;
21091;SDS011;10704;42.678;23.288;2023-02-13T17:01:02;37.83;;;20.35;;
21091;SDS011;10704;42.678;23.288;2023-02-13T17:07:18;41.15;;;20.73;;
21091;SDS011;10704;42.678;23.288;2023-02-13T17:09:53;37.50;;;19.65;;
21091;SDS011;10704;42.678;23.288;2023-02-13T17:12:20;42.25;;;21.92;;
21091;SDS011;10704;42.678;23.288;2023-02-13T17:14:47;42.00;;;22.50;;
21091;SDS011;10704;42.678;23.288;2023-02-13T17:17:17;40.30;;;21.50;;
21091;SDS011;10704;42.678;23.288;2023-02-13T17:19:45;42.88;;;21.73;;
21091;SDS011;10704;42.678;23.288;2023-02-13T17:22:17;41.70;;;21.90;;
21091;SDS011;10704;42.678;23.288;2023-02-13T17:24:58;41.92;;;22.45;;
21091;SDS011;10704;42.678;23.288;2023-02-13T17:27:25;58.88;;;25.77;;
21091;SDS011;10704;42.678;23.288;2023-02-13T17:33:39;42.55;;;22.40;;
21091;SDS011;10704;42.678;23.288;2023-02-13T17:39:13;46.05;;;24.75;;
21091;SDS011;10704;42.678;23.288;2023-02-13T17:41:39;50.92;;;25.63;;
21091;SDS011;10704;42.678;23.288;2023-02-13T17:44:08;47.53;;;24.13;;
21091;SDS011;10704;42.678;23.288;2023-02-13T17:46:37;38.47;;;19.73;;
21091;SDS011;10704;42.678;23.288;2023-02-13T17:49:04;41.20;;;22.27;;
21091;SDS011;10704;42.678;23.288;2023-02-13T17:51:30;39.30;;;20.48;;
21091;SDS011;10704;42.678;23.288;2023-02-13T17:53:56;39.00;;;20.75;;
21091;SDS011;10704;42.678;23.288;2023-02-13T17:59:41;40.63;;;19.60;;
21091;SDS011;10704;42.678;23.288;2023-02-13T18:02:09;36.72;;;19.63;;
21091;SDS011;10704;42.678;23.288;2023-02-13T18:04:37;40.95;;;19.95;;
21091;SDS011;10704;42.678;23.288;2023-02-13T18:07:04;39.45;;;20.40;;
21091;SDS011;10704;42.678;23.288;2023-02-13T18:09:30;39.17;;;20.88;;
21091;SDS011;10704;42.678;23.288;2023-02-13T18:11:55;36.25;;;19.63;;
21091;SDS011;10704;42.678;23.288;2023-02-13T18:21:57;31.45;;;17.30;;
21091;SDS011;10704;42.678;23.288;2023-02-13T18:24:26;34.10;;;17.75;;
21091;SDS011;10704;42.678;23.288;2023-02-13T18:26:56;33.25;;;17.88;;
21091;SDS011;10704;42.678;23.288;2023-02-13T18:33:09;34.47;;;18.23;;
21091;SDS011;10704;42.678;23.288;2023-02-13T18:38:39;37.22;;;19.88;;
21091;SDS011;10704;42.678;23.288;2023-02-13T18:41:05;36.42;;;18.65;;
21091;SDS011;10704;42.678;23.288;2023-02-13T18:43:31;35.60;;;18.88;;
21091;SDS011;10704;42.678;23.288;2023-02-13T18:45:56;36.75;;;19.58;;
21091;SDS011;10704;42.678;23.288;2023-02-13T18:48:23;40.40;;;20.40;;
21091;SDS011;10704;42.678;23.288;2023-02-13T18:50:48;42.03;;;18.95;;
21091;SDS011;10704;42.678;23.288;2023-02-13T18:53:14;34.50;;;17.92;;
21091;SDS011;10704;42.678;23.288;2023-02-13T18:55:40;33.63;;;17.13;;
21091;SDS011;10704;42.678;23.288;2023-02-13T18:58:06;34.33;;;18.25;;
21091;SDS011;10704;42.678;23.288;2023-02-13T19:00:32;37.58;;;18.33;;
21091;SDS011;10704;42.678;23.288;2023-02-13T19:02:58;32.47;;;17.30;;
21091;SDS011;10704;42.678;23.288;2023-02-13T19:05:24;31.10;;;17.30;;
21091;SDS011;10704;42.678;23.288;2023-02-13T19:07:50;29.00;;;16.27;;
21091;SDS011;10704;42.678;23.288;2023-02-13T19:10:16;33.28;;;16.30;;
21091;SDS011;10704;42.678;23.288;2023-02-13T19:12:42;33.13;;;16.67;;
21091;SDS011;10704;42.678;23.288;2023-02-13T19:15:08;32.15;;;17.08;;
21091;SDS011;10704;42.678;23.288;2023-02-13T19:17:34;27.88;;;15.55;;
21091;SDS011;10704;42.678;23.288;2023-02-13T19:20:02;35.72;;;16.83;;
21091;SDS011;10704;42.678;23.288;2023-02-13T19:22:29;31.38;;;16.23;;
21091;SDS011;10704;42.678;23.288;2023-02-13T19:24:54;28.65;;;15.25;;
21091;SDS011;10704;42.678;23.288;2023-02-13T19:27:20;25.90;;;14.23;;
21091;SDS011;10704;42.678;23.288;2023-02-13T19:29:46;32.00;;;15.55;;
21091;SDS011;10704;42.678;23.288;2023-02-13T19:32:12;31.65;;;16.33;;
21091;SDS011;10704;42.678;23.288;2023-02-13T19:38:26;31.85;;;15.32;;
21091;SDS011;10704;42.678;23.288;2023-02-13T19:40:52;33.15;;;16.75;;
21091;SDS011;10704;42.678;23.288;2023-02-13T19:43:21;28.02;;;15.50;;
21091;SDS011;10704;42.678;23.288;2023-02-13T19:45:47;26.83;;;14.10;;
21091;SDS011;10704;42.678;23.288;2023-02-13T19:48:14;33.47;;;17.15;;
21091;SDS011;10704;42.678;23.288;2023-02-13T19:50:40;26.80;;;15.52;;
21091;SDS011;10704;42.678;23.288;2023-02-13T19:53:06;28.63;;;15.50;;
21091;SDS011;10704;42.678;23.288;2023-02-13T19:55:32;31.05;;;16.75;;
21091;SDS011;10704;42.678;23.288;2023-02-13T19:57:58;27.73;;;15.27;;
21091;SDS011;10704;42.678;23.288;2023-02-13T20:00:24;29.63;;;16.02;;
21091;SDS011;10704;42.678;23.288;2023-02-13T20:02:51;29.75;;;16.17;;
21091;SDS011;10704;42.678;23.288;2023-02-13T20:05:19;30.65;;;15.05;;
21091;SDS011;10704;42.678;23.288;2023-02-13T20:07:45;29.20;;;15.68;;
21091;SDS011;10704;42.678;23.288;2023-02-13T20:10:11;34.13;;;16.08;;
21091;SDS011;10704;42.678;23.288;2023-02-13T20:12:37;25.60;;;13.27;;
21091;SDS011;10704;42.678;23.288;2023-02-13T20:15:03;23.73;;;13.85;;
21091;SDS011;10704;42.678;23.288;2023-02-13T20:17:30;25.52;;;14.52;;
21091;SDS011;10704;42.678;23.288;2023-02-13T20:19:56;25.63;;;14.60;;
21091;SDS011;10704;42.678;23.288;2023-02-13T20:22:22;29.75;;;14.32;;
21091;SDS011;10704;42.678;23.288;2023-02-13T20:24:48;26.98;;;14.63;;
21091;SDS011;10704;42.678;23.288;2023-02-13T20:27:14;26.70;;;13.90;;
21091;SDS011;10704;42.678;23.288;2023-02-13T20:29:40;28.25;;;14.25;;
21091;SDS011;10704;42.678;23.288;2023-02-13T20:32:06;27.63;;;14.98;;